Lake Jackson, TX (77566)

6:12 PM CDT on August 04, 2015 (GMT -0500)
Plantation Village | | Change Station
CLOSE
Current Station
Personal Weather Station
Location: Lake Jackson, TX
Elevation: 16 ft
Nearby Weather Stations

Elev 16 ft 29.04 °N, 95.46 °W | Updated 2 minutes ago

Clear
Clear
90.7 °F
Feels Like 101 °F
N
4.0
Wind Variable Wind from SSE
Gusts 4.0 mph

Today
High -- | Low -- °F
--% Chance of Precip.
Yesterday
High -- | Low -- °F
Precip. -- in
6:44 AM 8:11 PM
Waning Gibbous, 73% visible
Pressure 29.94 in
Visibility 10.0 miles
Clouds Clear
Heat Index 101 °F
Dew Point 74 °F
Humidity 59%
Rainfall 0.00 in
Snow Depth Not available.
UV 0.0 out of 12
Pollen 3.30 out of 12
Air Quality Not available.
Flu Activity Not available.
METAR KLBX 042253Z AUTO 17012KT 10SM CLR 33/22 A2994 RMK AO2 SLP138 T03330222

More Conditions Fewer Conditions

Pressure 29.94 in
Visibility 10.0 miles
Clouds Clear
Heat Index 101 °F
Dew Point 74 °F
Humidity 59%
Rainfall 0.00 in
Snow Depth Not available.
UV 0.0 out of 12
Pollen 3.30 out of 12
Air Quality Not available.
Flu Activity Not available.
METAR KLBX 042253Z AUTO 17012KT 10SM CLR 33/22 A2994 RMK AO2 SLP138 T03330222

More Conditions Fewer Conditions

10-Day Weather Forecast

×

Almanac

Astronomy

Aug. 04, 2015 Rise Set
Actual Time
Civil Twilight
Nautical Twilight
Astronomical Twilight
Moon
Length of Visible Light
Length of Day
Tomorrow will be .
, % of the Moon is Illuminated

Today's Extremes

State Highs State Lows

Community

WunderPhotos

Upload Photos

1,844,020 photos uploaded!

WunderBlogs® & News

Nearby

Air Quality

  Air Quality AQ Index Pollutant
Not available.

Snow Depth

Station Depth Elevation

Earthquake Activity

City Distance Mag. Time & Date
Minimum magnitude displayed is 2.5.

Coastal Water Temperatures

Place Temperature

Stations

Nearby Weather Stations

Station Location Temp. Windchill Dew Point Humidity Wind Precip. Elev Updated Type